createdAt,value
2023-01-19T00:04:28.113Z,5.70
2023-01-19T00:09:31.635Z,5.80
2023-01-19T00:14:33.758Z,5.70
2023-01-19T00:19:35.857Z,5.70
2023-01-19T00:24:39.457Z,5.70
2023-01-19T00:29:41.561Z,5.70
2023-01-19T00:34:43.711Z,5.70
2023-01-19T00:39:47.324Z,5.70
2023-01-19T00:44:49.440Z,5.70
2023-01-19T00:49:51.571Z,5.70
2023-01-19T00:54:55.017Z,5.70
2023-01-19T00:59:57.159Z,5.70
2023-01-19T01:04:59.791Z,5.70
2023-01-19T01:10:03.422Z,5.70
2023-01-19T01:15:07.124Z,5.70
2023-01-19T01:20:11.056Z,5.70
2023-01-19T01:25:16.068Z,5.70
2023-01-19T01:30:19.275Z,5.80
2023-01-19T01:35:21.451Z,5.70
2023-01-19T01:40:25.007Z,5.80
2023-01-19T01:45:32.761Z,5.80
2023-01-19T01:50:38.587Z,5.80
2023-01-19T01:55:46.542Z,5.80
2023-01-19T02:00:51.851Z,5.80
2023-01-19T02:05:55.416Z,5.80
2023-01-19T02:11:01.707Z,5.80
2023-01-19T02:16:07.657Z,5.80
2023-01-19T02:21:14.449Z,5.70
2023-01-19T02:26:20.990Z,5.80
2023-01-19T02:31:23.757Z,5.80
2023-01-19T02:36:29.322Z,5.70
2023-01-19T02:41:38.482Z,5.70
2023-01-19T02:46:40.646Z,5.70
2023-01-19T02:51:44.073Z,5.80
2023-01-19T02:57:11.219Z,5.80
2023-01-19T03:02:26.847Z,5.70
2023-01-19T03:07:42.371Z,5.70
2023-01-19T03:12:52.699Z,5.70
2023-01-19T03:17:58.075Z,5.70
2023-01-19T03:23:04.757Z,5.60
2023-01-19T03:28:08.392Z,5.60
2023-01-19T03:33:17.704Z,5.50
2023-01-19T03:38:25.307Z,5.50
2023-01-19T03:43:30.767Z,5.40
2023-01-19T03:48:33.798Z,5.40
2023-01-19T03:53:36.867Z,5.40
2023-01-19T03:58:40.419Z,5.40
2023-01-19T04:03:42.733Z,5.40
2023-01-19T04:08:45.421Z,5.50
2023-01-19T04:13:48.949Z,5.40
2023-01-19T04:18:51.064Z,5.50
2023-01-19T04:23:53.172Z,5.40
2023-01-19T04:28:57.772Z,5.40
2023-01-19T04:33:59.840Z,5.40
2023-01-19T04:39:01.969Z,5.40
2023-01-19T04:44:05.660Z,5.40
2023-01-19T04:49:08.619Z,5.40
2023-01-19T04:54:12.351Z,5.40
2023-01-19T04:59:15.920Z,5.40
2023-01-19T05:04:17.994Z,5.40
2023-01-19T05:09:20.780Z,5.40
2023-01-19T05:14:24.375Z,5.50
2023-01-19T05:19:26.539Z,5.50
2023-01-19T05:24:28.654Z,5.50
2023-01-19T05:29:32.294Z,5.60
2023-01-19T05:34:34.456Z,5.50
2023-01-19T05:39:36.599Z,5.50
2023-01-19T05:44:40.116Z,5.60
2023-01-19T05:49:42.304Z,5.60
2023-01-19T05:54:44.617Z,5.60
2023-01-19T05:59:48.158Z,5.60
2023-01-19T06:04:50.287Z,5.60
2023-01-19T06:09:52.344Z,5.60
2023-01-19T06:14:55.911Z,5.60
2023-01-19T06:19:58.102Z,5.60
2023-01-19T06:25:00.256Z,5.60
2023-01-19T06:30:04.278Z,5.60
2023-01-19T06:35:09.761Z,5.70
2023-01-19T06:40:14.316Z,5.70
2023-01-19T06:45:18.302Z,5.70
2023-01-19T06:50:20.481Z,5.60
2023-01-19T06:55:22.572Z,5.60
2023-01-19T07:00:28.908Z,5.50
2023-01-19T07:05:30.973Z,5.50
2023-01-19T07:11:26.217Z,5.40
2023-01-19T07:15:56.635Z,5.40
2023-01-19T07:20:59.752Z,5.30
2023-01-19T07:26:01.926Z,5.30
2023-01-19T07:31:06.162Z,5.20
2023-01-19T07:36:11.206Z,5.20
2023-01-19T07:41:13.310Z,5.20
2023-01-19T07:46:16.888Z,5.20
2023-01-19T07:51:19.147Z,5.30
2023-01-19T07:56:23.161Z,5.30
2023-01-19T08:01:26.795Z,5.30
2023-01-19T08:06:34.458Z,5.40
2023-01-19T08:11:36.701Z,5.60
2023-01-19T08:16:40.477Z,5.70
2023-01-19T08:21:42.698Z,5.70
2023-01-19T08:26:44.998Z,5.60
2023-01-19T08:31:48.584Z,5.60
2023-01-19T08:36:50.849Z,5.70
2023-01-19T08:41:53.385Z,5.70
2023-01-19T08:46:56.896Z,5.70
2023-01-19T08:51:58.997Z,5.70
2023-01-19T08:57:01.095Z,5.80
2023-01-19T09:02:06.492Z,5.70
2023-01-19T09:07:08.636Z,5.70
2023-01-19T09:12:10.756Z,5.70
2023-01-19T09:17:14.267Z,5.80
2023-01-19T09:22:16.392Z,5.80
2023-01-19T09:27:21.499Z,5.90
2023-01-19T09:32:25.002Z,6.00
2023-01-19T09:37:30.002Z,6.10
2023-01-19T09:42:40.513Z,6.30
2023-01-19T09:47:45.593Z,6.40
2023-01-19T09:52:59.035Z,6.50
2023-01-19T09:58:02.411Z,6.60
2023-01-19T10:03:15.317Z,6.80
2023-01-19T10:08:24.501Z,6.80
2023-01-19T10:13:36.580Z,7.00
2023-01-19T10:18:44.378Z,7.10
2023-01-19T10:23:50.965Z,7.20
2023-01-19T10:28:57.825Z,7.40
2023-01-19T10:34:01.503Z,7.60
2023-01-19T10:39:04.999Z,7.80
2023-01-19T10:44:07.266Z,8.00
2023-01-19T10:49:25.630Z,8.40
2023-01-19T10:54:31.455Z,8.90
2023-01-19T10:59:36.588Z,9.50
2023-01-19T11:04:40.110Z,10.10
2023-01-19T11:09:42.260Z,10.60
2023-01-19T11:14:45.000Z,11.20
2023-01-19T11:19:58.001Z,11.80
2023-01-19T11:25:01.576Z,12.40
2023-01-19T11:30:08.876Z,12.80
2023-01-19T11:35:29.198Z,12.90
2023-01-19T11:40:34.156Z,12.80
2023-01-19T11:45:36.695Z,12.80
2023-01-19T11:50:44.769Z,12.80
2023-01-19T11:55:54.989Z,12.80
2023-01-19T12:01:02.391Z,13.10
2023-01-19T12:06:07.639Z,13.40
2023-01-19T12:11:16.445Z,13.60
2023-01-19T12:16:23.465Z,13.70
2023-01-19T12:21:25.687Z,13.70
2023-01-19T12:26:37.097Z,13.90
2023-01-19T12:31:40.474Z,14.10
2023-01-19T12:36:42.739Z,14.30
2023-01-19T12:41:46.712Z,14.50
2023-01-19T12:46:51.778Z,14.60
2023-01-19T12:52:11.090Z,14.80
2023-01-19T12:57:23.409Z,14.90
2023-01-19T13:02:53.673Z,15.10
2023-01-19T13:08:49.474Z,15.10
2023-01-19T13:14:24.834Z,15.00
2023-01-19T13:19:46.016Z,14.60
2023-01-19T13:25:13.402Z,14.40
2023-01-19T13:30:19.471Z,14.40
2023-01-19T13:35:24.059Z,14.20
2023-01-19T13:40:34.201Z,13.70
2023-01-19T13:45:37.818Z,13.00
2023-01-19T13:50:41.547Z,12.40
2023-01-19T13:55:43.672Z,11.90
2023-01-19T14:00:46.026Z,11.50
2023-01-19T14:05:52.976Z,11.40
2023-01-19T14:11:02.572Z,11.10
2023-01-19T14:16:07.000Z,10.80
2023-01-19T14:21:12.226Z,10.60
2023-01-19T14:26:40.929Z,10.50
2023-01-19T14:31:44.223Z,10.50
2023-01-19T14:36:51.778Z,10.30
2023-01-19T14:41:59.537Z,10.20
2023-01-19T14:47:02.197Z,10.00
2023-01-19T14:52:08.602Z,9.90
2023-01-19T14:57:12.612Z,9.80
2023-01-19T15:02:14.910Z,9.70
2023-01-19T15:07:19.488Z,9.50
2023-01-19T15:12:26.201Z,9.40
2023-01-19T15:17:28.595Z,9.20
2023-01-19T15:22:32.295Z,9.10
2023-01-19T15:27:34.467Z,8.90
2023-01-19T15:32:36.805Z,8.70
2023-01-19T15:37:40.463Z,8.50
2023-01-19T15:42:43.162Z,8.30
2023-01-19T15:47:45.429Z,8.10
2023-01-19T15:52:49.060Z,7.90
2023-01-19T15:57:51.210Z,7.80
2023-01-19T16:02:53.403Z,7.60
2023-01-19T16:07:57.947Z,7.50
2023-01-19T16:12:59.986Z,7.30
2023-01-19T16:18:02.131Z,7.20
2023-01-19T16:23:14.751Z,7.00
2023-01-19T16:28:17.202Z,7.00
2023-01-19T16:33:20.506Z,6.80
2023-01-19T16:38:24.209Z,6.70
2023-01-19T16:43:28.277Z,6.60
2023-01-19T16:48:30.748Z,6.50
2023-01-19T16:53:34.551Z,6.40
2023-01-19T16:58:36.770Z,6.30
2023-01-19T17:03:39.652Z,6.20
2023-01-19T17:08:44.075Z,6.20
2023-01-19T17:13:46.416Z,6.10
2023-01-19T17:18:48.541Z,6.00
2023-01-19T17:23:53.479Z,5.90
2023-01-19T17:28:58.778Z,5.70
2023-01-19T17:34:01.897Z,5.60
2023-01-19T17:39:09.652Z,5.60
2023-01-19T17:44:12.067Z,5.50
2023-01-19T17:49:14.242Z,5.40
2023-01-19T17:54:19.042Z,5.40
2023-01-19T17:59:21.121Z,5.30
2023-01-19T18:04:24.000Z,5.20
2023-01-19T18:09:28.194Z,5.20
2023-01-19T18:14:31.894Z,5.20
2023-01-19T18:19:35.226Z,5.10
2023-01-19T18:24:40.536Z,5.10
2023-01-19T18:29:44.244Z,5.10
2023-01-19T18:34:46.763Z,5.00
2023-01-19T18:39:52.868Z,5.00
2023-01-19T18:44:55.055Z,4.90
2023-01-19T18:50:12.579Z,4.90
2023-01-19T18:55:20.307Z,4.80
2023-01-19T19:00:22.906Z,4.80
2023-01-19T19:05:25.173Z,4.70
2023-01-19T19:10:37.024Z,4.70
2023-01-19T19:15:39.577Z,4.70
2023-01-19T19:20:51.155Z,4.60
2023-01-19T19:26:00.708Z,4.50
2023-01-19T19:31:05.620Z,4.50
2023-01-19T19:36:09.502Z,4.40
2023-01-19T19:41:15.396Z,4.40
2023-01-19T19:46:19.391Z,4.40
2023-01-19T19:51:23.612Z,4.30
2023-01-19T19:56:28.693Z,4.30
2023-01-19T20:01:34.574Z,4.30
2023-01-19T20:06:38.976Z,4.20
2023-01-19T20:11:43.884Z,4.20
2023-01-19T20:16:46.058Z,4.10
2023-01-19T20:21:48.136Z,4.00
2023-01-19T20:26:52.970Z,4.00
2023-01-19T20:31:57.841Z,3.90
2023-01-19T20:37:15.201Z,3.90
2023-01-19T20:42:18.902Z,3.80
2023-01-19T20:47:21.485Z,3.80
2023-01-19T20:52:23.626Z,3.80
2023-01-19T20:57:27.133Z,3.70
2023-01-19T21:02:29.268Z,3.70
2023-01-19T21:07:31.412Z,3.70
2023-01-19T21:12:40.044Z,3.80
2023-01-19T21:17:43.758Z,3.80
2023-01-19T21:22:47.323Z,3.90
2023-01-19T21:27:50.911Z,3.90
2023-01-19T21:32:53.172Z,4.00
2023-01-19T21:37:55.498Z,4.00
2023-01-19T21:42:59.158Z,4.10
2023-01-19T21:48:01.289Z,4.10
2023-01-19T21:53:03.562Z,4.00
2023-01-19T21:58:07.162Z,4.00
2023-01-19T22:03:10.272Z,3.90
2023-01-19T22:08:12.453Z,3.90
2023-01-19T22:13:16.092Z,3.80
2023-01-19T22:18:18.281Z,3.70
2023-01-19T22:23:20.459Z,3.70
2023-01-19T22:28:24.057Z,3.60
2023-01-19T22:33:28.431Z,3.60
2023-01-19T22:38:30.508Z,3.50
2023-01-19T22:43:34.024Z,3.50
2023-01-19T22:48:36.629Z,3.50
2023-01-19T22:53:38.784Z,3.40
2023-01-19T22:58:43.119Z,3.40
2023-01-19T23:03:45.308Z,3.40
2023-01-19T23:08:47.993Z,3.30
2023-01-19T23:13:51.862Z,3.30
2023-01-19T23:18:55.575Z,3.30
2023-01-19T23:24:02.622Z,3.20
2023-01-19T23:29:06.657Z,3.20
2023-01-19T23:34:10.472Z,3.10
2023-01-19T23:39:16.092Z,3.10
2023-01-19T23:44:19.847Z,3.00
2023-01-19T23:49:22.058Z,3.10
2023-01-19T23:54:24.303Z,3.10
2023-01-19T23:59:27.862Z,3.10
